Klitsa — CZ3072 — position and weather

sailwx.info

Track history (hours):
 
Tides and Currents Weather Stations Pressure Air Temp Water Temp Dewpoint Dewpoint Depression Visibility Wind Speed Wind Dir Waves Ship Positions

Klitsa

Last reported at 2017-Oct-22 01:59 UTC. Time now 2017-Oct-22 12:11 UTC.
Position N 48°35' W 123°28'.

Length 46 m; draft 3 m.

Type: Passenger vessel. MMSI: 316001235.

Date/timePositionNaut miles runAvg speedWind from/ knotsBaromVisibWave heightAir tempDewpointWater temp
2017-Oct-22 01:59N 48°35' W 123°28'3 6.2
2017-Oct-22 01:30N 48°37' W 123°31'3 4.5
2017-Oct-22 00:51N 48°35' W 123°28'3 7.3
2017-Oct-22 00:30N 48°37' W 123°31'2 3.5
2017-Oct-22 00:00N 48°35' W 123°29'1 1.3
2017-Oct-21 23:30N 48°36' W 123°30'1 1.5
2017-Oct-21 23:00N 48°36' W 123°30'2 4.0
2017-Oct-21 22:30N 48°35' W 123°28'3 5.5
2017-Oct-21 22:00N 48°37' W 123°31'3 3.9
2017-Oct-21 21:17N 48°35' W 123°28'2 7.3
2017-Oct-21 20:59N 48°36' W 123°30'1 1.9
2017-Oct-21 20:30N 48°36' W 123°30'1 1.1
2017-Oct-21 19:11N 48°35' W 123°28'1 7.1
2017-Oct-21 18:59N 48°36' W 123°30'1 2.0
2017-Oct-21 18:30N 48°36' W 123°31'2 4.5
2017-Oct-21 17:58N 48°35' W 123°28'3 6.5
2017-Oct-21 17:30N 48°37' W 123°31'3 5.6
2017-Oct-21 16:59N 48°35' W 123°28'2 3.3
2017-Oct-21 16:29N 48°36' W 123°30'0 0.6
2017-Oct-21 16:00N 48°36' W 123°30'2 3.5
2017-Oct-21 15:30N 48°35' W 123°28'3 5.5
2017-Oct-21 15:01N 48°37' W 123°31'3 0.2
2017-Oct-21 02:13N 48°35' W 123°28'2 7.7
2017-Oct-21 02:00N 48°36' W 123°30'0 0.2
2017-Oct-21 01:30N 48°36' W 123°30'1 2.2
2017-Oct-21 00:59N 48°35' W 123°29'2 4.9
2017-Oct-21 00:30N 48°37' W 123°31'2 2.6
2017-Oct-20 23:41N 48°35' W 123°29'1 7.8
2017-Oct-20 23:30N 48°36' W 123°30'1 1.9
2017-Oct-20 23:00N 48°36' W 123°30'1 1.4
2017-Oct-20 22:30N 48°35' W 123°29'2 3.7
2017-Oct-20 21:58N 48°37' W 123°31'2 3.8
2017-Oct-20 21:19N 48°35' W 123°28'2 7.6
2017-Oct-20 21:00N 48°37' W 123°31'2 3.3
2017-Oct-20 20:26N 48°35' W 123°29'1 0.5
2017-Oct-20 19:04N 48°35' W 123°28'0 6.9
2017-Oct-20 19:00N 48°35' W 123°29'3 5.2
2017-Oct-20 18:30N 48°37' W 123°31'3 4.6
2017-Oct-20 17:52N 48°35' W 123°28'3 7.9
2017-Oct-20 17:30N 48°37' W 123°31'3 5.2
2017-Oct-20 16:58N 48°35' W 123°28'1 3.1
2017-Oct-20 16:30N 48°36' W 123°30'1 1.5
2017-Oct-20 16:00N 48°36' W 123°30'2 4.4
2017-Oct-20 15:30N 48°35' W 123°28'3 5.7
2017-Oct-20 15:00N 48°37' W 123°31'3 0.2
2017-Oct-20 01:56N 48°35' W 123°28'3 6.0
2017-Oct-20 01:28N 48°37' W 123°31'3 4.6
2017-Oct-20 00:51N 48°35' W 123°28'3 6.9
2017-Oct-20 00:26N 48°37' W 123°31'2 5.5
2017-Oct-20 00:01N 48°35' W 123°29'1 1.3
2017-Oct-19 23:29N 48°36' W 123°30'1 1.7
2017-Oct-19 22:59N 48°36' W 123°30'2 4.0
2017-Oct-19 22:28N 48°35' W 123°28'3 5.8
2017-Oct-19 21:59N 48°37' W 123°31'3 4.6
2017-Oct-19 21:21N 48°35' W 123°28'2 7.0
2017-Oct-19 21:00N 48°36' W 123°31'1 2.6
2017-Oct-19 20:30N 48°35' W 123°30'1 0.8
2017-Oct-19 19:02N 48°35' W 123°28'0 3.0
2017-Oct-19 19:00N 48°35' W 123°28'3 5.6
2017-Oct-19 18:29N 48°37' W 123°31'3 3.7
2017-Oct-19 17:46N 48°35' W 123°29'2 7.9
2017-Oct-19 17:30N 48°36' W 123°31'2 3.4
2017-Oct-19 16:56N 48°35' W 123°29'1 1.5
2017-Oct-19 16:30N 48°35' W 123°30'1 1.9
2017-Oct-19 16:00N 48°36' W 123°30'2 4.2
2017-Oct-19 15:31N 48°35' W 123°28'2 3.4
2017-Oct-19 14:50N 48°36' W 123°30'2 0.2
2017-Oct-19 01:55N 48°35' W 123°28'3 7.1
2017-Oct-19 01:30N 48°37' W 123°31'3 5.6
2017-Oct-19 01:00N 48°35' W 123°28'2 3.7
2017-Oct-19 00:30N 48°36' W 123°30'1 1.5
2017-Oct-18 23:58N 48°35' W 123°29'0 0.6
2017-Oct-18 23:29N 48°35' W 123°29'2 3.6
2017-Oct-18 22:59N 48°37' W 123°31'3 4.8
2017-Oct-18 22:26N 48°35' W 123°28'3 6.7
2017-Oct-18 22:00N 48°37' W 123°31'3 5.7
2017-Oct-18 21:30N 48°35' W 123°28'2 4.2
2017-Oct-18 20:59N 48°36' W 123°30'1 1.5
2017-Oct-18 20:30N 48°36' W 123°30'2 2.3
2017-Oct-18 19:51N 48°35' W 123°28'0 0.0
2017-Oct-18 19:28N 48°35' W 123°28'1 1.6
2017-Oct-18 18:58N 48°35' W 123°29'2 4.3
2017-Oct-18 18:29N 48°37' W 123°31'3 5.1
2017-Oct-18 17:56N 48°35' W 123°28'3 6.9
2017-Oct-18 17:30N 48°37' W 123°31'2 5.0
2017-Oct-18 17:00N 48°35' W 123°29'1 2.2
2017-Oct-18 16:27N 48°36' W 123°30'1 1.3
2017-Oct-18 16:00N 48°36' W 123°30'2 4.5
2017-Oct-18 15:30N 48°35' W 123°28'3 5.9
2017-Oct-18 15:00N 48°37' W 123°31'3 0.2
2017-Oct-18 01:54N 48°35' W 123°28'3 6.9
2017-Oct-18 01:29N 48°37' W 123°31'3 5.3
2017-Oct-18 00:57N 48°35' W 123°28'2 3.6
2017-Oct-18 00:30N 48°36' W 123°30'1 1.3
2017-Oct-17 23:56N 48°35' W 123°29'0 0.9
2017-Oct-17 23:25N 48°36' W 123°30'1 2.7
2017-Oct-17 23:00N 48°37' W 123°31'2 4.2
2017-Oct-17 22:25N 48°35' W 123°28'3 6.6
2017-Oct-17 22:00N 48°37' W 123°31'3 5.0
2017-Oct-17 21:30N 48°35' W 123°29'1 2.9
2017-Oct-17 21:00N 48°36' W 123°30'2 0.9
2017-Oct-17 19:01N 48°35' W 123°28'0 7.4
2017-Oct-17 19:00N 48°35' W 123°29'3 5.2
2017-Oct-17 18:30N 48°37' W 123°31'3 4.6
2017-Oct-17 17:52N 48°35' W 123°28'3 5.6
2017-Oct-17 17:21N 48°37' W 123°31'3 7.0
2017-Oct-17 16:57N 48°35' W 123°28'1 3.1
2017-Oct-17 16:30N 48°36' W 123°30'1 1.1
2017-Oct-17 16:00N 48°36' W 123°30'2 3.9
2017-Oct-17 15:29N 48°35' W 123°28'3 5.6
2017-Oct-17 14:59N 48°37' W 123°31'3 0.2
2017-Oct-17 01:53N 48°35' W 123°28'3 7.4
2017-Oct-17 01:30N 48°37' W 123°31'3 5.4
2017-Oct-17 00:59N 48°35' W 123°28'2 4.3
2017-Oct-17 00:30N 48°36' W 123°30'1 2.9
2017-Oct-17 00:00N 48°35' W 123°29'0 0.7
2017-Oct-16 23:30N 48°35' W 123°30'1 2.5
2017-Oct-16 23:00N 48°36' W 123°31'2 4.3
2017-Oct-16 22:26N 48°35' W 123°28'3 6.7
2017-Oct-16 22:00N 48°37' W 123°31'2 4.9
2017-Oct-16 21:30N 48°35' W 123°29'2 3.1
2017-Oct-16 21:00N 48°36' W 123°30'0 0.5
2017-Oct-16 20:30N 48°36' W 123°30'2 1.2
2017-Oct-16 19:05N 48°35' W 123°28'1 7.4
2017-Oct-16 19:00N 48°35' W 123°29'2 4.6
2017-Oct-16 18:30N 48°37' W 123°31'3 4.9
2017-Oct-16 17:55N 48°35' W 123°28'3 6.9
2017-Oct-16 17:30N 48°37' W 123°31'3 5.0
2017-Oct-16 16:59N 48°35' W 123°29'1 2.6
2017-Oct-16 16:30N 48°36' W 123°30'0 0.6
2017-Oct-16 15:59N 48°36' W 123°30'1 2.7
2017-Oct-16 15:29N 48°35' W 123°29'2 5.1
2017-Oct-16 15:00N 48°37' W 123°31'3 5.5
2017-Oct-16 14:28N 48°35' W 123°28'0 0.0
2017-Oct-16 01:57N 48°35' W 123°28'3 6.7
2017-Oct-16 01:30N 48°37' W 123°31'3 4.2
2017-Oct-16 00:50N 48°35' W 123°28'3 7.6
2017-Oct-16 00:28N 48°37' W 123°31'2 4.8
2017-Oct-15 23:58N 48°35' W 123°29'1 1.9
2017-Oct-15 23:30N 48°36' W 123°30'1 1.6
2017-Oct-15 22:59N 48°36' W 123°30'2 3.9
2017-Oct-15 22:27N 48°35' W 123°28'3 6.3
2017-Oct-15 22:00N 48°37' W 123°31'3 4.0
2017-Oct-15 21:18N 48°35' W 123°28'2 7.8
2017-Oct-15 21:00N 48°36' W 123°31'1 2.7
2017-Oct-15 20:30N 48°35' W 123°29'1 0.5
2017-Oct-15 19:00N 48°35' W 123°29'2 3.9
2017-Oct-15 18:27N 48°36' W 123°31'2 4.2
2017-Oct-15 17:52N 48°35' W 123°28'3 7.1
2017-Oct-15 17:29N 48°37' W 123°31'2 4.3
2017-Oct-15 17:00N 48°35' W 123°29'1 1.4
2017-Oct-15 16:30N 48°36' W 123°30'1 1.4
2017-Oct-15 16:00N 48°36' W 123°30'2 0.1
2017-Oct-15 01:53N 48°35' W 123°28'3 7.2
2017-Oct-15 01:30N 48°37' W 123°31'2 4.9
2017-Oct-15 01:00N 48°35' W 123°29'1 2.6
2017-Oct-15 00:31N 48°36' W 123°30'0 0.3
2017-Oct-15 00:00N 48°36' W 123°30'1 1.3
2017-Oct-14 23:29N 48°35' W 123°29'2 3.6
2017-Oct-14 23:01N 48°37' W 123°31'3 4.7
2017-Oct-14 22:27N 48°35' W 123°28'3 6.8
2017-Oct-14 22:00N 48°37' W 123°31'3 4.9
2017-Oct-14 21:30N 48°35' W 123°29'1 2.8
2017-Oct-14 20:59N 48°36' W 123°30'0 0.1
2017-Oct-14 20:30N 48°36' W 123°30'2 1.4
2017-Oct-14 19:12N 48°35' W 123°28'1 6.5
2017-Oct-14 19:00N 48°35' W 123°30'2 3.4
2017-Oct-14 18:30N 48°37' W 123°31'3 5.0
2017-Oct-14 17:55N 48°35' W 123°28'3 7.1
2017-Oct-14 17:30N 48°37' W 123°31'2 4.7
2017-Oct-14 17:00N 48°35' W 123°29'1 1.3
2017-Oct-14 16:31N 48°35' W 123°29'1 2.0
2017-Oct-14 16:00N 48°36' W 123°30'2 4.0
2017-Oct-14 15:30N 48°35' W 123°28'3 5.6
2017-Oct-14 15:00N 48°37' W 123°31'3 0.2
2017-Oct-14 02:06N 48°35' W 123°28'1 6.7
2017-Oct-14 01:57N 48°35' W 123°29'0 0.1
2017-Oct-14 00:07N 48°35' W 123°30'2 1.8
2017-Oct-13 23:10N 48°37' W 123°31'1 6.5
2017-Oct-13 23:00N 48°36' W 123°30'2 3.3
2017-Oct-13 22:29N 48°35' W 123°28'3 5.5
2017-Oct-13 22:00N 48°37' W 123°31'3 4.4
2017-Oct-13 21:19N 48°35' W 123°28'2 7.2
2017-Oct-13 21:00N 48°36' W 123°30'1 1.6
2017-Oct-13 20:30N 48°36' W 123°30'1 0.9
2017-Oct-13 19:01N 48°35' W 123°28'0 2.4
2017-Oct-13 19:01N 48°35' W 123°28'3 5.7
2017-Oct-13 18:30N 48°37' W 123°31'3 4.1
2017-Oct-13 17:51N 48°35' W 123°29'3 7.5
2017-Oct-13 17:30N 48°37' W 123°31'2 4.9
2017-Oct-13 17:00N 48°35' W 123°29'1 1.2
2017-Oct-13 16:30N 48°35' W 123°29'1 2.5
2017-Oct-13 16:00N 48°36' W 123°30'2 4.3
2017-Oct-13 15:28N 48°35' W 123°28'3 6.2
2017-Oct-13 15:00N 48°37' W 123°31'3 0.2
2017-Oct-13 01:56N 48°35' W 123°28'3 6.8
2017-Oct-13 01:30N 48°37' W 123°31'3 5.7
2017-Oct-13 01:00N 48°35' W 123°28'2 4.3
2017-Oct-13 00:30N 48°36' W 123°30'2 2.7
2017-Oct-12 23:55N 48°35' W 123°29'1 1.2
2017-Oct-12 23:29N 48°35' W 123°29'1 2.8
2017-Oct-12 22:58N 48°36' W 123°31'2 4.0
2017-Oct-12 22:24N 48°35' W 123°28'3 7.0
2017-Oct-12 22:01N 48°37' W 123°31'3 4.1
2017-Oct-12 21:17N 48°35' W 123°28'2 7.2
2017-Oct-12 21:00N 48°36' W 123°30'1 1.3
2017-Oct-12 20:30N 48°36' W 123°30'1 0.8
2017-Oct-12 19:00N 48°35' W 123°28'3 5.7
2017-Oct-12 18:31N 48°37' W 123°31'3 3.7
2017-Oct-12 17:47N 48°35' W 123°28'2 7.8
2017-Oct-12 17:30N 48°36' W 123°31'1 2.8
2017-Oct-12 17:00N 48°35' W 123°29'0 0.1
2017-Oct-12 16:30N 48°35' W 123°29'2 3.1
2017-Oct-12 16:00N 48°37' W 123°31'3 4.8
2017-Oct-12 15:28N 48°35' W 123°28'3 6.2
2017-Oct-12 15:00N 48°37' W 123°31'3 0.2
2017-Oct-12 02:08N 48°35' W 123°28'  
Track history (hours):
 
Tides and Currents Weather Stations Pressure Air Temp Water Temp Dewpoint Dewpoint Depression Visibility Wind Speed Wind Dir Waves Ship Positions

Klitsa

Last reported at 2017-Oct-22 01:59 UTC. Time now 2017-Oct-22 12:11 UTC.
Position N 48°35' W 123°28'.

Length 46 m; draft 3 m.

Type: Passenger vessel. MMSI: 316001235.

Date/timePositionNaut miles runAvg speedWind from/ knotsBaromVisibWave heightAir tempDewpointWater temp
2017-Oct-22 01:59N 48°35' W 123°28'3 6.2
2017-Oct-22 01:30N 48°37' W 123°31'3 4.5
2017-Oct-22 00:51N 48°35' W 123°28'3 7.3
2017-Oct-22 00:30N 48°37' W 123°31'2 3.5
2017-Oct-22 00:00N 48°35' W 123°29'1 1.3
2017-Oct-21 23:30N 48°36' W 123°30'1 1.5
2017-Oct-21 23:00N 48°36' W 123°30'2 4.0
2017-Oct-21 22:30N 48°35' W 123°28'3 5.5
2017-Oct-21 22:00N 48°37' W 123°31'3 3.9
2017-Oct-21 21:17N 48°35' W 123°28'2 7.3
2017-Oct-21 20:59N 48°36' W 123°30'1 1.9
2017-Oct-21 20:30N 48°36' W 123°30'1 1.1
2017-Oct-21 19:11N 48°35' W 123°28'1 7.1
2017-Oct-21 18:59N 48°36' W 123°30'1 2.0
2017-Oct-21 18:30N 48°36' W 123°31'2 4.5
2017-Oct-21 17:58N 48°35' W 123°28'3 6.5
2017-Oct-21 17:30N 48°37' W 123°31'3 5.6
2017-Oct-21 16:59N 48°35' W 123°28'2 3.3
2017-Oct-21 16:29N 48°36' W 123°30'0 0.6
2017-Oct-21 16:00N 48°36' W 123°30'2 3.5
2017-Oct-21 15:30N 48°35' W 123°28'3 5.5
2017-Oct-21 15:01N 48°37' W 123°31'3 0.2
2017-Oct-21 02:13N 48°35' W 123°28'2 7.7
2017-Oct-21 02:00N 48°36' W 123°30'0 0.2
2017-Oct-21 01:30N 48°36' W 123°30'1 2.2
2017-Oct-21 00:59N 48°35' W 123°29'2 4.9
2017-Oct-21 00:30N 48°37' W 123°31'2 2.6
2017-Oct-20 23:41N 48°35' W 123°29'1 7.8
2017-Oct-20 23:30N 48°36' W 123°30'1 1.9
2017-Oct-20 23:00N 48°36' W 123°30'1 1.4
2017-Oct-20 22:30N 48°35' W 123°29'2 3.7
2017-Oct-20 21:58N 48°37' W 123°31'2 3.8
2017-Oct-20 21:19N 48°35' W 123°28'2 7.6
2017-Oct-20 21:00N 48°37' W 123°31'2 3.3
2017-Oct-20 20:26N 48°35' W 123°29'1 0.5
2017-Oct-20 19:04N 48°35' W 123°28'0 6.9
2017-Oct-20 19:00N 48°35' W 123°29'3 5.2
2017-Oct-20 18:30N 48°37' W 123°31'3 4.6
2017-Oct-20 17:52N 48°35' W 123°28'3 7.9
2017-Oct-20 17:30N 48°37' W 123°31'3 5.2
2017-Oct-20 16:58N 48°35' W 123°28'1 3.1
2017-Oct-20 16:30N 48°36' W 123°30'1 1.5
2017-Oct-20 16:00N 48°36' W 123°30'2 4.4
2017-Oct-20 15:30N 48°35' W 123°28'3 5.7
2017-Oct-20 15:00N 48°37' W 123°31'3 0.2
2017-Oct-20 01:56N 48°35' W 123°28'3 6.0
2017-Oct-20 01:28N 48°37' W 123°31'3 4.6
2017-Oct-20 00:51N 48°35' W 123°28'3 6.9
2017-Oct-20 00:26N 48°37' W 123°31'2 5.5
2017-Oct-20 00:01N 48°35' W 123°29'1 1.3
2017-Oct-19 23:29N 48°36' W 123°30'1 1.7
2017-Oct-19 22:59N 48°36' W 123°30'2 4.0
2017-Oct-19 22:28N 48°35' W 123°28'3 5.8
2017-Oct-19 21:59N 48°37' W 123°31'3 4.6
2017-Oct-19 21:21N 48°35' W 123°28'2 7.0
2017-Oct-19 21:00N 48°36' W 123°31'1 2.6
2017-Oct-19 20:30N 48°35' W 123°30'1 0.8
2017-Oct-19 19:02N 48°35' W 123°28'0 3.0
2017-Oct-19 19:00N 48°35' W 123°28'3 5.6
2017-Oct-19 18:29N 48°37' W 123°31'3 3.7
2017-Oct-19 17:46N 48°35' W 123°29'2 7.9
2017-Oct-19 17:30N 48°36' W 123°31'2 3.4
2017-Oct-19 16:56N 48°35' W 123°29'1 1.5
2017-Oct-19 16:30N 48°35' W 123°30'1 1.9
2017-Oct-19 16:00N 48°36' W 123°30'2 4.2
2017-Oct-19 15:31N 48°35' W 123°28'2 3.4
2017-Oct-19 14:50N 48°36' W 123°30'2 0.2
2017-Oct-19 01:55N 48°35' W 123°28'3 7.1
2017-Oct-19 01:30N 48°37' W 123°31'3 5.6
2017-Oct-19 01:00N 48°35' W 123°28'2 3.7
2017-Oct-19 00:30N 48°36' W 123°30'1 1.5
2017-Oct-18 23:58N 48°35' W 123°29'0 0.6
2017-Oct-18 23:29N 48°35' W 123°29'2 3.6
2017-Oct-18 22:59N 48°37' W 123°31'3 4.8
2017-Oct-18 22:26N 48°35' W 123°28'3 6.7
2017-Oct-18 22:00N 48°37' W 123°31'3 5.7
2017-Oct-18 21:30N 48°35' W 123°28'2 4.2
2017-Oct-18 20:59N 48°36' W 123°30'1 1.5
2017-Oct-18 20:30N 48°36' W 123°30'2 2.3
2017-Oct-18 19:51N 48°35' W 123°28'0 0.0
2017-Oct-18 19:28N 48°35' W 123°28'1 1.6
2017-Oct-18 18:58N 48°35' W 123°29'2 4.3
2017-Oct-18 18:29N 48°37' W 123°31'3 5.1
2017-Oct-18 17:56N 48°35' W 123°28'3 6.9
2017-Oct-18 17:30N 48°37' W 123°31'2 5.0
2017-Oct-18 17:00N 48°35' W 123°29'1 2.2
2017-Oct-18 16:27N 48°36' W 123°30'1 1.3
2017-Oct-18 16:00N 48°36' W 123°30'2 4.5
2017-Oct-18 15:30N 48°35' W 123°28'3 5.9
2017-Oct-18 15:00N 48°37' W 123°31'3 0.2
2017-Oct-18 01:54N 48°35' W 123°28'3 6.9
2017-Oct-18 01:29N 48°37' W 123°31'3 5.3
2017-Oct-18 00:57N 48°35' W 123°28'2 3.6
2017-Oct-18 00:30N 48°36' W 123°30'1 1.3
2017-Oct-17 23:56N 48°35' W 123°29'0 0.9
2017-Oct-17 23:25N 48°36' W 123°30'1 2.7
2017-Oct-17 23:00N 48°37' W 123°31'2 4.2
2017-Oct-17 22:25N 48°35' W 123°28'3 6.6
2017-Oct-17 22:00N 48°37' W 123°31'3 5.0
2017-Oct-17 21:30N 48°35' W 123°29'1 2.9
2017-Oct-17 21:00N 48°36' W 123°30'2 0.9
2017-Oct-17 19:01N 48°35' W 123°28'0 7.4
2017-Oct-17 19:00N 48°35' W 123°29'3 5.2
2017-Oct-17 18:30N 48°37' W 123°31'3 4.6
2017-Oct-17 17:52N 48°35' W 123°28'3 5.6
2017-Oct-17 17:21N 48°37' W 123°31'3 7.0
2017-Oct-17 16:57N 48°35' W 123°28'1 3.1
2017-Oct-17 16:30N 48°36' W 123°30'1 1.1
2017-Oct-17 16:00N 48°36' W 123°30'2 3.9
2017-Oct-17 15:29N 48°35' W 123°28'3 5.6
2017-Oct-17 14:59N 48°37' W 123°31'3 0.2
2017-Oct-17 01:53N 48°35' W 123°28'3 7.4
2017-Oct-17 01:30N 48°37' W 123°31'3 5.4
2017-Oct-17 00:59N 48°35' W 123°28'2 4.3
2017-Oct-17 00:30N 48°36' W 123°30'1 2.9
2017-Oct-17 00:00N 48°35' W 123°29'0 0.7
2017-Oct-16 23:30N 48°35' W 123°30'1 2.5
2017-Oct-16 23:00N 48°36' W 123°31'2 4.3
2017-Oct-16 22:26N 48°35' W 123°28'3 6.7
2017-Oct-16 22:00N 48°37' W 123°31'2 4.9
2017-Oct-16 21:30N 48°35' W 123°29'2 3.1
2017-Oct-16 21:00N 48°36' W 123°30'0 0.5
2017-Oct-16 20:30N 48°36' W 123°30'2 1.2
2017-Oct-16 19:05N 48°35' W 123°28'1 7.4
2017-Oct-16 19:00N 48°35' W 123°29'2 4.6
2017-Oct-16 18:30N 48°37' W 123°31'3 4.9
2017-Oct-16 17:55N 48°35' W 123°28'3 6.9
2017-Oct-16 17:30N 48°37' W 123°31'3 5.0
2017-Oct-16 16:59N 48°35' W 123°29'1 2.6
2017-Oct-16 16:30N 48°36' W 123°30'0 0.6
2017-Oct-16 15:59N 48°36' W 123°30'1 2.7
2017-Oct-16 15:29N 48°35' W 123°29'2 5.1
2017-Oct-16 15:00N 48°37' W 123°31'3 5.5
2017-Oct-16 14:28N 48°35' W 123°28'0 0.0
2017-Oct-16 01:57N 48°35' W 123°28'3 6.7
2017-Oct-16 01:30N 48°37' W 123°31'3 4.2
2017-Oct-16 00:50N 48°35' W 123°28'3 7.6
2017-Oct-16 00:28N 48°37' W 123°31'2 4.8
2017-Oct-15 23:58N 48°35' W 123°29'1 1.9
2017-Oct-15 23:30N 48°36' W 123°30'1 1.6
2017-Oct-15 22:59N 48°36' W 123°30'2 3.9
2017-Oct-15 22:27N 48°35' W 123°28'3 6.3
2017-Oct-15 22:00N 48°37' W 123°31'3 4.0
2017-Oct-15 21:18N 48°35' W 123°28'2 7.8
2017-Oct-15 21:00N 48°36' W 123°31'1 2.7
2017-Oct-15 20:30N 48°35' W 123°29'1 0.5
2017-Oct-15 19:00N 48°35' W 123°29'2 3.9
2017-Oct-15 18:27N 48°36' W 123°31'2 4.2
2017-Oct-15 17:52N 48°35' W 123°28'3 7.1
2017-Oct-15 17:29N 48°37' W 123°31'2 4.3
2017-Oct-15 17:00N 48°35' W 123°29'1 1.4
2017-Oct-15 16:30N 48°36' W 123°30'1 1.4
2017-Oct-15 16:00N 48°36' W 123°30'2 0.1
2017-Oct-15 01:53N 48°35' W 123°28'3 7.2
2017-Oct-15 01:30N 48°37' W 123°31'2 4.9
2017-Oct-15 01:00N 48°35' W 123°29'1 2.6
2017-Oct-15 00:31N 48°36' W 123°30'0 0.3
2017-Oct-15 00:00N 48°36' W 123°30'1 1.3
2017-Oct-14 23:29N 48°35' W 123°29'2 3.6
2017-Oct-14 23:01N 48°37' W 123°31'3 4.7
2017-Oct-14 22:27N 48°35' W 123°28'3 6.8
2017-Oct-14 22:00N 48°37' W 123°31'3 4.9
2017-Oct-14 21:30N 48°35' W 123°29'1 2.8
2017-Oct-14 20:59N 48°36' W 123°30'0 0.1
2017-Oct-14 20:30N 48°36' W 123°30'2 1.4
2017-Oct-14 19:12N 48°35' W 123°28'1 6.5
2017-Oct-14 19:00N 48°35' W 123°30'2 3.4
2017-Oct-14 18:30N 48°37' W 123°31'3 5.0
2017-Oct-14 17:55N 48°35' W 123°28'3 7.1
2017-Oct-14 17:30N 48°37' W 123°31'2 4.7
2017-Oct-14 17:00N 48°35' W 123°29'1 1.3
2017-Oct-14 16:31N 48°35' W 123°29'1 2.0
2017-Oct-14 16:00N 48°36' W 123°30'2 4.0
2017-Oct-14 15:30N 48°35' W 123°28'3 5.6
2017-Oct-14 15:00N 48°37' W 123°31'3 0.2
2017-Oct-14 02:06N 48°35' W 123°28'1 6.7
2017-Oct-14 01:57N 48°35' W 123°29'0 0.1
2017-Oct-14 00:07N 48°35' W 123°30'2 1.8
2017-Oct-13 23:10N 48°37' W 123°31'1 6.5
2017-Oct-13 23:00N 48°36' W 123°30'2 3.3
2017-Oct-13 22:29N 48°35' W 123°28'3 5.5
2017-Oct-13 22:00N 48°37' W 123°31'3 4.4
2017-Oct-13 21:19N 48°35' W 123°28'2 7.2
2017-Oct-13 21:00N 48°36' W 123°30'1 1.6
2017-Oct-13 20:30N 48°36' W 123°30'1 0.9
2017-Oct-13 19:01N 48°35' W 123°28'0 2.4
2017-Oct-13 19:01N 48°35' W 123°28'3 5.7
2017-Oct-13 18:30N 48°37' W 123°31'3 4.1
2017-Oct-13 17:51N 48°35' W 123°29'3 7.5
2017-Oct-13 17:30N 48°37' W 123°31'2 4.9
2017-Oct-13 17:00N 48°35' W 123°29'1 1.2
2017-Oct-13 16:30N 48°35' W 123°29'1 2.5
2017-Oct-13 16:00N 48°36' W 123°30'2 4.3
2017-Oct-13 15:28N 48°35' W 123°28'3 6.2
2017-Oct-13 15:00N 48°37' W 123°31'3 0.2
2017-Oct-13 01:56N 48°35' W 123°28'3 6.8
2017-Oct-13 01:30N 48°37' W 123°31'3 5.7
2017-Oct-13 01:00N 48°35' W 123°28'2 4.3
2017-Oct-13 00:30N 48°36' W 123°30'2 2.7
2017-Oct-12 23:55N 48°35' W 123°29'1 1.2
2017-Oct-12 23:29N 48°35' W 123°29'1 2.8
2017-Oct-12 22:58N 48°36' W 123°31'2 4.0
2017-Oct-12 22:24N 48°35' W 123°28'3 7.0
2017-Oct-12 22:01N 48°37' W 123°31'3 4.1
2017-Oct-12 21:17N 48°35' W 123°28'2 7.2
2017-Oct-12 21:00N 48°36' W 123°30'1 1.3
2017-Oct-12 20:30N 48°36' W 123°30'1 0.8
2017-Oct-12 19:00N 48°35' W 123°28'3 5.7
2017-Oct-12 18:31N 48°37' W 123°31'3 3.7
2017-Oct-12 17:47N 48°35' W 123°28'2 7.8
2017-Oct-12 17:30N 48°36' W 123°31'1 2.8
2017-Oct-12 17:00N 48°35' W 123°29'0 0.1
2017-Oct-12 16:30N 48°35' W 123°29'2 3.1
2017-Oct-12 16:00N 48°37' W 123°31'3 4.8
2017-Oct-12 15:28N 48°35' W 123°28'3 6.2
2017-Oct-12 15:00N 48°37' W 123°31'3 0.2
2017-Oct-12 02:08N 48°35' W 123°28'  

Dump ship's entire track history